Nearby METAR Reports

 

KIAD - Wash Dc/Dulles, Virginia, USA
Distance from station: NNW 8mi, 13km
Updated: Thu, 21-Sep-2017 6:52pm EDT
Mostly cloudy
Mostly cloudy
 Wind from NNW
Wind: NNW 6 mph , 9 km/h
Temperature: 81°F , 27°C
Heat Index: 83°F , 28°C
Dew Point: 64°F , 18°C
Humidity: 58%
Barometer: 30.03 inHg , 1016.9 hPa
Clouds: Mostly cloudy
Visibility: 10 miles , 16 km
Cloud details: Few Clouds 6000 ft
Partly cloudy 15000 ft
Mostly cloudy 25000 ft
2017/09/21 22:52 KIAD 212252Z 33005KT 10SM FEW060 SCT150 BKN250 27/18 A3003 RMK AO2 SLP165 T02670178
KHEF - Manassas Muni, Virginia, USA
Distance from station: SW 9mi, 14km
Updated: Thu, 21-Sep-2017 6:56pm EDT
Clear
Clear
 Wind from calm
Wind: Calm
Temperature: 77°F , 25°C
Dew Point: 63°F , 17°C
Humidity: 61%
Barometer: 30.03 inHg , 1016.9 hPa
Clouds: Clear
Visibility: 10 miles , 16 km
2017/09/21 22:56 KHEF 212256Z AUTO 00000KT 10SM CLR 25/17 A3003 RMK AO2 SLP177 T02500172 PNO $
KDAA - Fort Belvoir/Dav, Virginia, USA
Distance from station: ESE 15mi, 25km
Updated: Thu, 21-Sep-2017 6:56pm EDT
Clear
Clear
 Wind from calm
Wind: Calm
Temperature: 77°F , 25°C
Dew Point: 66°F , 19°C
Humidity: 69%
Barometer: 30.01 inHg , 1016.3 hPa
Clouds: Clear
Visibility: 10 miles , 16 km
2017/09/21 22:56 KDAA 212256Z AUTO 00000KT 10SM CLR 25/19 A3001 RMK AO2 SLP165 T02450191 $
 
KJYO - Leesburg/Godfrey, Virginia, USA
Distance from station: NNW 19mi, 30km
Updated: Thu, 21-Sep-2017 6:55pm EDT
Clear
Clear
 Wind from calm
Wind: Calm
Temperature: 81°F , 27°C
Heat Index: 84°F , 29°C
Dew Point: 68°F , 20°C
Humidity: 66%
Barometer: 30.04 inHg , 1017.3 hPa
Clouds: Clear
Visibility: 10 miles , 16 km
2017/09/21 22:55 KJYO 212255Z AUTO 00000KT 10SM CLR 27/20 A3004 RMK AO2
KDCA - Washington/Natl, Washington D.c., USA
Distance from station: E 21mi, 34km
Updated: Thu, 21-Sep-2017 6:52pm EDT
Mostly cloudy
Mostly cloudy
 Wind from N
Wind: N 7 mph , 11 km/h
Temperature: 82°F , 28°C
Heat Index: 84°F , 29°C
Dew Point: 64°F , 18°C
Humidity: 55%
Barometer: 30.02 inHg , 1016.6 hPa
Clouds: Mostly cloudy
Visibility: 10 miles , 16 km
Cloud details: Few Clouds 5000 ft
Mostly cloudy 25000 ft
2017/09/21 22:52 KDCA 212252Z 35006KT 10SM FEW050 BKN250 28/18 A3002 RMK AO2 SLP164 T02780183 $
KHWY - Warrenton, Virginia, USA
Distance from station: SW 23mi, 37km
Updated: Thu, 21-Sep-2017 6:55pm EDT
Clear
Clear
 Wind from calm
Wind: Calm
Temperature: 75°F , 24°C
Dew Point: 61°F , 16°C
Humidity: 61%
Barometer: 30.03 inHg , 1016.9 hPa
Clouds: Clear
Visibility: 10 miles , 16 km
2017/09/21 22:55 KHWY 212255Z AUTO 00000KT 10SM CLR 24/16 A3003 RMK AO2 T02380160
 
KNYG - Quantico Mcaf, Virginia, USA
Distance from station: SSE 23mi, 37km
Updated: Thu, 21-Sep-2017 6:56pm EDT
Clear
Clear
 Wind from WNW
Wind: WNW 6 mph , 9 km/h
Temperature: 77°F , 25°C
Dew Point: 72°F , 22°C
Humidity: 83%
Barometer: 30.02 inHg , 1016.6 hPa
Clouds: Clear
Visibility: 10 miles , 16 km
2017/09/21 22:56 KNYG 212256Z AUTO 30005KT 10SM CLR 25/22 A3002 RMK AO2 SLP165 T02500217
KGAI - Gaithersburg, Maryland, USA
Distance from station: NNE 28mi, 44km
Updated: Thu, 21-Sep-2017 6:56pm EDT
Clear
Clear
 Wind from calm
Wind: Calm
Temperature: 73°F , 23°C
Dew Point: 66°F , 19°C
Humidity: 78%
Barometer: 30.05 inHg , 1017.6 hPa
Clouds: Clear
Visibility: 10 miles , 16 km
2017/09/21 22:56 KGAI 212256Z AUTO 00000KT 10SM CLR 23/19 A3005 RMK AO2 SLP198 T02330189
KCGS - College Park, Maryland, USA
Distance from station: ENE 29mi, 47km
Updated: Thu, 21-Sep-2017 6:46pm EDT
Clear
Clear
 Wind from NNW
Wind: NNW 3 mph , 6 km/h
Temperature: 79°F , 26°C
Dew Point: 64°F , 18°C
Humidity: 61%
Barometer: 30.01 inHg , 1016.3 hPa
Clouds: Clear
Visibility: 10 miles , 16 km
2017/09/21 22:46 KCGS 212246Z AUTO 33003KT 10SM CLR 26/18 A3001 RMK AO1 T02550184
 
KRMN - Stafford Regnl, Virginia, USA
Distance from station: S 29mi, 47km
Updated: Thu, 21-Sep-2017 6:55pm EDT
Clear
Clear
 Wind from calm
Wind: Calm
Temperature: 72°F , 22°C
Dew Point: 72°F , 22°C
Humidity: 100%
Barometer: 30.05 inHg , 1017.6 hPa
Clouds: Clear
Visibility: 10 miles , 16 km
2017/09/21 22:55 KRMN 212255Z AUTO 00000KT 10SM CLR 22/22 A3005 RMK AO2 T02230220
KADW - Andrews Afb, Maryland, USA
Distance from station: E 30mi, 48km
Updated: Thu, 21-Sep-2017 6:58pm EDT
Few Clouds
Few Clouds
 Wind from N
Wind: N 8 mph , 13 km/h
Temperature: 81°F , 27°C
Heat Index: 83°F , 28°C
Dew Point: 64°F , 18°C
Humidity: 58%
Barometer: 30.01 inHg , 1016.3 hPa
Clouds: Few Clouds
Visibility: 10 miles , 16 km
Cloud details: Few Clouds 5500 ft
2017/09/21 22:58 KADW 212258Z AUTO 35007KT 10SM FEW055 27/18 A3001 RMK AO2 SLP167 T02660177
KCJR - Culpeper, Virginia, USA
Distance from station: SW 31mi, 50km
Updated: Thu, 21-Sep-2017 6:55pm EDT
Clear
Clear
 Wind from calm
Wind: Calm
Temperature: 77°F , 25°C
Dew Point: 64°F , 18°C
Humidity: 65%
Barometer: 30.04 inHg , 1017.3 hPa
Clouds: Clear
Visibility: 10 miles , 16 km
2017/09/21 22:55 KCJR 212255Z AUTO 00000KT 10SM CLR 25/18 A3004 RMK AO2 T02460183
 
KEZF - Fredericksb/Shan, Virginia, USA
Distance from station: S 38mi, 61km
Updated: Thu, 21-Sep-2017 6:55pm EDT
Clear
Clear
 Wind from calm
Wind: Calm
Temperature: 77°F , 25°C
Dew Point: 70°F , 21°C
Humidity: 79%
Barometer: 30.01 inHg , 1016.3 hPa
Clouds: Clear
Visibility: 10 miles , 16 km
2017/09/21 22:55 KEZF 212255Z AUTO 00000KT 10SM CLR 25/21 A3001 RMK AO2 T02480205
KFME - Fort Meade, Maryland, USA
Distance from station: ENE 40mi, 64km
Updated: Thu, 21-Sep-2017 6:45pm EDT
Clear
Clear
 Wind from calm
Wind: Calm
Temperature: 73°F , 23°C
Dew Point: 70°F , 21°C
Humidity: 89%
Barometer: 30.04 inHg , 1017.3 hPa
Clouds: Clear
Visibility: 10 miles , 16 km
2017/09/21 22:45 KFME 212245Z AUTO 00000KT 10SM CLR 23/21 A3004 RMK AO1
KFDK - Frederick, Maryland, USA
Distance from station: N 41mi, 67km
Updated: Thu, 21-Sep-2017 6:47pm EDT
Clear
Clear
 Wind from calm
Wind: Calm
Temperature: 81°F , 27°C
Heat Index: 83°F , 28°C
Dew Point: 64°F , 18°C
Humidity: 58%
Barometer: 30.05 inHg , 1017.6 hPa
Clouds: Clear
Visibility: 10 miles , 16 km
2017/09/21 22:47 KFDK 212247Z 00000KT 10SM SKC 27/18 A3005
 
KOKV - Winchester Rgnl, Virginia, USA
Distance from station: WNW 45mi, 72km
Updated: Thu, 21-Sep-2017 6:55pm EDT
Clear
Clear
 Wind from calm
Wind: Calm
Temperature: 75°F , 24°C
Dew Point: 63°F , 17°C
Humidity: 65%
Barometer: 30.05 inHg , 1017.6 hPa
Clouds: Clear
Visibility: 10 miles , 16 km
2017/09/21 22:55 KOKV 212255Z AUTO 00000KT 10SM CLR 24/17 A3005 RMK AO2
KFRR - Front Royal, Virginia, USA
Distance from station: W 45mi, 73km
Updated: Thu, 21-Sep-2017 6:55pm EDT
Clear
Clear
 Wind from calm
Wind: Calm
Temperature: 77°F , 25°C
Dew Point: 64°F , 18°C
Humidity: 65%
Barometer: 30.04 inHg , 1017.3 hPa
Clouds: Clear
Visibility: 10 miles , 16 km
2017/09/21 22:55 KFRR 212255Z AUTO 00000KT 10SM CLR 25/18 A3004 RMK AO1
KBWI - Balto/Wash Intl, Maryland, USA
Distance from station: ENE 46mi, 75km
Updated: Thu, 21-Sep-2017 6:54pm EDT
Mostly cloudy
Mostly cloudy
 Wind from NW
Wind: NW 5 mph , 7 km/h
Temperature: 81°F , 27°C
Heat Index: 83°F , 28°C
Dew Point: 66°F , 19°C
Humidity: 62%
Barometer: 30.01 inHg , 1016.3 hPa
Clouds: Mostly cloudy
Visibility: 10 miles , 16 km
Cloud details: Few Clouds 5500 ft
Partly cloudy 16000 ft
Mostly cloudy 25000 ft
2017/09/21 22:54 KBWI 212254Z 31004KT 10SM FEW055 SCT160 BKN250 27/19 A3001 RMK AO2 SLP159 T02720189
 
KMRB - Martinsburg, West Virginia, USA
Distance from station: NW 50mi, 81km
Updated: Thu, 21-Sep-2017 6:53pm EDT
Clear
Clear
 Wind from varies
Wind: varies 3 mph , 6 km/h
Temperature: 79°F , 26°C
Dew Point: 61°F , 16°C
Humidity: 54%
Barometer: 30.04 inHg , 1017.3 hPa
Clouds: Clear
Visibility: 10 miles , 16 km
2017/09/21 22:53 KMRB 212253Z VRB03KT 10SM CLR 26/16 A3004 RMK AO2 SLP167 T02610156
KNAK - Annapolis/Naval, Maryland, USA
Distance from station: ENE 52mi, 83km
Updated: Thu, 21-Sep-2017 6:54pm EDT
Clear
Clear
 Wind from calm
Wind: Calm
Temperature: 81°F , 27°C
Heat Index: 85°F , 29°C
Dew Point: 72°F , 22°C
Humidity: 74%
Barometer: 30.00 inHg , 1015.9 hPa
Clouds: Clear
Visibility: 10 miles , 16 km
2017/09/21 22:54 KNAK 212254Z AUTO 00000KT 10SM CLR 27/22 A3000 RMK AO2 SLP162 T02720217
KOMH - Orange, Virginia, USA
Distance from station: SW 52mi, 84km
Updated: Thu, 21-Sep-2017 6:55pm EDT
Clear
Clear
 Wind from calm
Wind: Calm
Temperature: 73°F , 23°C
Dew Point: 66°F , 19°C
Humidity: 78%
Barometer: 30.03 inHg , 1016.9 hPa
Clouds: Clear
Visibility: 10 miles , 16 km
2017/09/21 22:55 KOMH 212255Z AUTO 00000KT 10SM CLR 23/19 A3003 RMK AO2